Time;durP1;ratioP1;P1;durP2;ratioP2;P2;SDS_P1;SDS_P2;PMS_P1;PMS_P2;Temp;Humidity;BMP_temperature;BMP_pressure;BME280_temperature;BME280_humidity;BME280_pressure;Samples;Min_cycle;Max_cycle;Signal;HPM_P1;HPM_P2
2022/12/27 00:01:17;;;;;;;7.90;1.92;;;3.90;99.90;;;;;;5113795;28;20046;-62
2022/12/27 00:03:44;;;;;;;6.57;1.77;;;4.20;99.90;;;;;;5114061;28;20066;-62
2022/12/27 00:06:18;;;;;;;13.05;1.90;;;4.00;99.90;;;;;;5114139;28;20043;-62
2022/12/27 00:08:45;;;;;;;8.30;1.50;;;4.00;99.90;;;;;;5114084;28;20035;-61
2022/12/27 00:11:14;;;;;;;5.97;1.80;;;4.00;99.90;;;;;;5114067;28;20039;-62
2022/12/27 00:13:40;;;;;;;9.93;1.80;;;4.00;99.90;;;;;;5113920;28;20358;-62
2022/12/27 00:16:11;;;;;;;8.25;1.60;;;4.10;99.90;;;;;;5113737;28;20076;-62
2022/12/27 00:18:38;;;;;;;10.88;2.35;;;4.10;99.90;;;;;;5113677;28;20127;-62
2022/12/27 00:21:05;;;;;;;8.57;1.88;;;4.10;99.90;;;;;;5113940;28;20040;-62
2022/12/27 00:23:36;;;;;;;7.93;2.17;;;4.00;99.90;;;;;;5113958;28;20408;-61
2022/12/27 00:26:15;;;;;;;15.45;1.90;;;4.00;99.90;;;;;;5113885;28;20449;-61
2022/12/27 00:28:41;;;;;;;11.38;1.75;;;4.00;99.90;;;;;;5113904;28;20039;-62
2022/12/27 00:31:07;;;;;;;11.75;1.95;;;4.00;99.90;;;;;;5113785;28;20359;-62
2022/12/27 00:33:35;;;;;;;11.90;1.73;;;3.90;99.90;;;;;;5094987;28;20039;-62
2022/12/27 00:36:03;;;;;;;15.90;2.55;;;4.00;99.90;;;;;;5113620;28;20040;-61
2022/12/27 00:38:30;;;;;;;9.05;2.25;;;4.00;99.90;;;;;;5095124;28;20504;-61
2022/12/27 00:40:56;;;;;;;9.35;2.03;;;4.00;99.90;;;;;;5113957;28;20036;-61
2022/12/27 00:43:22;;;;;;;8.93;1.60;;;4.00;99.90;;;;;;5095231;28;20046;-62
2022/12/27 00:45:48;;;;;;;12.50;2.60;;;3.90;99.90;;;;;;5095198;28;20036;-62
2022/12/27 00:48:13;;;;;;;10.68;2.20;;;4.00;99.90;;;;;;5113499;28;20053;-62
2022/12/27 00:50:40;;;;;;;15.25;2.00;;;4.00;99.90;;;;;;5095239;28;20075;-62
2022/12/27 00:53:06;;;;;;;9.07;1.90;;;4.00;99.90;;;;;;5113440;28;20489;-62
2022/12/27 00:55:33;;;;;;;14.63;1.90;;;4.10;99.90;;;;;;5113552;28;20065;-63
2022/12/27 00:57:58;;;;;;;8.38;2.08;;;4.10;99.90;;;;;;5113563;28;20469;-62
2022/12/27 01:00:24;;;;;;;8.20;2.22;;;4.20;99.90;;;;;;5113721;28;20040;-62
2022/12/27 01:02:50;;;;;;;16.02;2.42;;;4.20;99.90;;;;;;5113647;28;20071;-62
2022/12/27 01:05:15;;;;;;;10.82;2.20;;;4.20;99.90;;;;;;5113357;28;20032;-62
2022/12/27 01:07:41;;;;;;;9.45;2.22;;;4.20;99.90;;;;;;5113568;28;20048;-62
2022/12/27 01:10:07;;;;;;;9.68;1.73;;;4.30;99.90;;;;;;5113517;28;20051;-62
2022/12/27 01:12:34;;;;;;;7.57;1.90;;;4.30;99.90;;;;;;5113515;28;20054;-61
2022/12/27 01:14:59;;;;;;;11.77;1.92;;;4.30;99.90;;;;;;5113164;28;20039;-62
2022/12/27 01:17:25;;;;;;;16.58;2.40;;;4.20;99.90;;;;;;5113399;28;20043;-61
2022/12/27 01:19:51;;;;;;;8.15;1.85;;;4.30;99.90;;;;;;5112969;28;20043;-61
2022/12/27 01:22:16;;;;;;;15.05;2.30;;;4.30;99.90;;;;;;5113457;28;20061;-62
2022/12/27 01:24:42;;;;;;;14.40;2.15;;;4.40;99.90;;;;;;5113452;28;20039;-62
2022/12/27 01:27:07;;;;;;;7.75;1.77;;;4.30;99.90;;;;;;5113478;28;20035;-62
2022/12/27 01:29:33;;;;;;;13.13;2.15;;;4.40;99.90;;;;;;5113428;28;20036;-62
2022/12/27 01:31:59;;;;;;;9.52;2.13;;;4.40;99.90;;;;;;5113057;28;20473;-61
2022/12/27 01:34:24;;;;;;;16.60;2.33;;;4.40;99.90;;;;;;5112961;28;20089;-62
2022/12/27 01:36:50;;;;;;;12.57;2.20;;;4.40;99.90;;;;;;5113229;28;20039;-62
2022/12/27 01:39:15;;;;;;;10.40;3.10;;;4.50;99.90;;;;;;5113410;28;20035;-62
2022/12/27 01:47:22;;;;;;;10.05;2.80;;;4.60;99.90;;;;;;5116820;28;20088;-64
2022/12/27 01:50:09;;;;;;;8.35;2.38;;;4.70;99.90;;;;;;5116761;28;20050;-62
2022/12/27 01:52:43;;;;;;;9.57;1.77;;;4.90;99.90;;;;;;5116828;28;20046;-63
2022/12/27 01:55:17;;;;;;;7.38;1.38;;;5.00;99.90;;;;;;5116731;28;20054;-64
2022/12/27 01:57:43;;;;;;;9.77;1.90;;;5.50;99.90;;;;;;5116512;28;20044;-63
2022/12/27 02:00:09;;;;;;;6.38;1.23;;;5.00;99.90;;;;;;5116493;28;20040;-61
2022/12/27 02:02:35;;;;;;;9.75;2.17;;;5.00;99.90;;;;;;5116662;28;20067;-61
2022/12/27 02:05:01;;;;;;;10.38;1.60;;;4.90;99.90;;;;;;5116484;28;20505;-62
2022/12/27 02:07:37;;;;;;;9.75;2.22;;;4.80;99.90;;;;;;5116305;28;20040;-62
2022/12/27 02:10:03;;;;;;;11.82;1.88;;;4.80;99.90;;;;;;5116272;28;20043;-61
2022/12/27 02:12:30;;;;;;;12.10;1.80;;;4.90;99.90;;;;;;5116318;28;20079;-61
2022/12/27 02:14:57;;;;;;;7.18;2.22;;;4.90;99.90;;;;;;5115973;28;20473;-62
2022/12/27 02:17:29;;;;;;;7.53;1.65;;;4.90;99.90;;;;;;5116141;28;20039;-62
2022/12/27 02:20:05;;;;;;;9.27;1.77;;;5.00;99.90;;;;;;5097730;28;20059;-61
2022/12/27 02:25:50;;;;;;;12.18;1.75;;;4.80;99.90;;;;;;5115720;28;20482;-61
2022/12/27 02:28:57;;;;;;;8.15;1.67;;;4.80;99.90;;;;;;5115860;28;20397;-62
2022/12/27 02:31:49;;;;;;;10.20;1.63;;;4.80;99.90;;;;;;5115810;28;20094;-61
2022/12/27 02:34:41;;;;;;;9.55;2.13;;;4.70;99.90;;;;;;5012961;28;20137;-61
2022/12/27 02:37:11;;;;;;;9.20;1.73;;;4.60;99.90;;;;;;5013012;28;20121;-62
2022/12/27 02:39:43;;;;;;;12.00;2.00;;;4.60;99.90;;;;;;4996615;28;20172;-61
2022/12/27 02:53:32;;;;;;;10.32;2.00;;;4.80;99.90;;;;;;5012793;28;20050;-61
2022/12/27 02:58:57;;;;;;;13.35;2.15;;;4.80;99.90;;;;;;5012608;28;20583;-62
2022/12/27 03:04:56;;;;;;;10.50;1.90;;;4.70;99.90;;;;;;5012355;28;20093;-61
2022/12/27 03:07:40;;;;;;;11.35;2.45;;;4.60;99.90;;;;;;4954086;29;20062;-62
2022/12/27 03:16:21;;;;;;;5.57;1.48;;;4.70;99.90;;;;;;5051884;28;20057;-62
2022/12/27 03:19:04;;;;;;;13.35;2.92;;;4.60;99.90;;;;;;5051664;28;20053;-60
2022/12/27 03:27:28;;;;;;;12.13;1.90;;;4.70;99.90;;;;;;5051658;28;20060;-63
2022/12/27 03:38:01;;;;;;;8.68;2.20;;;4.80;99.90;;;;;;5051238;28;20041;-61
2022/12/27 03:38:33;;;;;;;9.07;1.80;;;4.90;99.90;;;;;;5051493;28;20072;-61
2022/12/27 03:43:47;;;;;;;10.73;2.00;;;4.90;99.90;;;;;;5082169;28;20393;-62
2022/12/27 03:46:32;;;;;;;9.27;2.17;;;4.90;99.90;;;;;;5114346;28;20048;-61
2022/12/27 03:49:07;;;;;;;13.35;2.00;;;4.80;99.90;;;;;;5114208;28;20043;-62
2022/12/27 03:51:41;;;;;;;8.70;1.88;;;4.80;99.90;;;;;;5095939;28;20126;-62
2022/12/27 03:54:25;;;;;;;10.75;2.00;;;4.80;99.90;;;;;;5114111;28;20032;-62
2022/12/27 03:57:00;;;;;;;9.48;1.80;;;4.80;99.90;;;;;;5114115;28;20039;-62
2022/12/27 03:59:26;;;;;;;10.55;1.65;;;4.80;99.90;;;;;;5114016;28;20036;-62
2022/12/27 04:01:52;;;;;;;12.27;1.73;;;4.90;99.90;;;;;;5113949;28;20039;-61
2022/12/27 04:04:18;;;;;;;9.75;1.95;;;4.80;99.90;;;;;;5113821;28;20408;-62
2022/12/27 04:06:43;;;;;;;8.35;1.58;;;4.70;99.90;;;;;;5112987;28;20040;-61
2022/12/27 04:36:34;;;;;;;11.40;2.10;;;4.50;99.90;;;;;;5113625;28;20128;-61
2022/12/27 04:38:59;;;;;;;10.65;2.17;;;4.40;99.90;;;;;;5094716;28;20157;-61
2022/12/27 04:55:24;;;;;;;13.13;3.17;;;4.50;99.90;;;;;;5113140;28;20184;-61
2022/12/27 04:57:51;;;;;;;9.18;1.98;;;4.40;99.90;;;;;;5113428;28;20043;-62
2022/12/27 05:03:06;;;;;;;11.90;1.90;;;4.40;99.90;;;;;;5113244;28;20043;-62
2022/12/27 05:05:33;;;;;;;13.23;2.05;;;4.40;99.90;;;;;;5113025;28;20161;-63
2022/12/27 05:16:13;;;;;;;9.68;3.15;;;4.30;99.90;;;;;;5113220;28;20374;-62
2022/12/27 05:18:39;;;;;;;15.95;2.72;;;4.30;99.90;;;;;;5114836;28;20111;-62
2022/12/27 05:21:06;;;;;;;11.88;2.58;;;4.10;99.90;;;;;;5117210;28;20433;-63
2022/12/27 05:26:25;;;;;;;10.93;2.53;;;4.10;99.90;;;;;;5116824;28;20122;-61
2022/12/27 05:28:53;;;;;;;16.30;2.75;;;4.10;99.90;;;;;;5116653;28;20110;-61
2022/12/27 05:31:20;;;;;;;13.93;2.40;;;4.10;99.90;;;;;;5098808;28;20114;-62
2022/12/27 05:33:46;;;;;;;17.40;2.40;;;4.20;99.90;;;;;;5116908;28;20488;-61
2022/12/27 05:36:12;;;;;;;7.72;2.28;;;4.10;99.90;;;;;;5098520;28;20054;-61
2022/12/27 05:38:38;;;;;;;18.27;2.28;;;4.10;99.90;;;;;;5116316;28;20035;-62
2022/12/27 05:41:04;;;;;;;11.13;2.10;;;4.10;99.90;;;;;;5116645;28;20036;-62
2022/12/27 05:43:30;;;;;;;16.67;2.45;;;4.10;99.90;;;;;;5116126;28;20488;-62
2022/12/27 05:46:22;;;;;;;11.63;2.08;;;4.00;99.90;;;;;;5116317;28;20043;-62
2022/12/27 05:48:48;;;;;;;12.05;2.55;;;4.00;99.90;;;;;;5115786;28;20067;-61
2022/12/27 05:51:15;;;;;;;7.72;2.40;;;4.00;99.90;;;;;;5116370;28;20481;-62
2022/12/27 05:53:40;;;;;;;16.67;2.25;;;4.00;99.90;;;;;;5116433;28;20031;-61
2022/12/27 05:56:07;;;;;;;7.47;1.80;;;4.00;99.90;;;;;;5115954;28;20027;-62
2022/12/27 05:58:33;;;;;;;18.60;2.58;;;3.90;99.90;;;;;;5116245;28;20493;-61
2022/12/27 06:01:00;;;;;;;11.75;2.15;;;3.90;99.90;;;;;;5097954;28;20050;-61
2022/12/27 06:03:26;;;;;;;11.52;2.72;;;3.70;99.90;;;;;;5115858;28;20075;-62
2022/12/27 06:05:58;;;;;;;10.48;2.05;;;3.70;99.90;;;;;;5116239;28;20063;-62
2022/12/27 06:08:24;;;;;;;9.70;2.25;;;3.70;99.90;;;;;;5097625;28;20039;-62
2022/12/27 06:10:52;;;;;;;13.93;1.92;;;3.60;99.90;;;;;;5116110;28;20035;-61
2022/12/27 06:13:18;;;;;;;11.40;2.35;;;3.50;99.90;;;;;;5115985;28;20477;-61
2022/12/27 06:15:43;;;;;;;7.72;1.95;;;3.50;99.90;;;;;;5115719;28;20035;-61
2022/12/27 06:18:09;;;;;;;9.05;1.90;;;3.50;99.90;;;;;;5116003;28;20093;-61
2022/12/27 06:20:35;;;;;;;12.68;2.30;;;3.50;99.90;;;;;;5115309;28;20109;-61
2022/12/27 06:23:01;;;;;;;17.83;2.50;;;3.50;99.90;;;;;;5115588;28;20044;-61
2022/12/27 06:25:27;;;;;;;10.90;2.05;;;3.60;99.90;;;;;;5115487;28;20040;-61
2022/12/27 06:27:52;;;;;;;17.90;2.67;;;3.70;99.90;;;;;;5115451;28;20046;-60
2022/12/27 06:30:18;;;;;;;11.30;2.13;;;3.70;99.90;;;;;;5114836;28;20047;-61
2022/12/27 06:32:44;;;;;;;16.05;1.90;;;3.70;99.90;;;;;;5115307;28;20035;-62
2022/12/27 06:35:10;;;;;;;13.80;2.35;;;3.70;99.90;;;;;;5097088;28;20190;-61
2022/12/27 06:37:35;;;;;;;15.02;3.15;;;3.60;99.90;;;;;;5115593;28;20039;-61
2022/12/27 06:40:01;;;;;;;7.53;1.92;;;3.60;99.90;;;;;;5115447;28;20042;-62
2022/12/27 06:42:29;;;;;;;13.02;2.42;;;3.50;99.90;;;;;;5115338;28;20035;-61
2022/12/27 06:44:54;;;;;;;21.50;2.72;;;3.60;99.90;;;;;;5115552;28;20104;-61
2022/12/27 06:47:20;;;;;;;11.70;2.42;;;3.50;99.90;;;;;;5115128;28;20553;-61
2022/12/27 06:49:46;;;;;;;14.07;2.42;;;3.40;99.90;;;;;;5115337;28;20042;-61
2022/12/27 06:52:11;;;;;;;15.00;3.03;;;3.50;99.90;;;;;;5115488;28;20040;-61
2022/12/27 06:54:37;;;;;;;13.90;2.70;;;3.40;99.90;;;;;;5115265;28;20051;-61
2022/12/27 06:57:02;;;;;;;13.60;2.38;;;3.30;99.90;;;;;;5114898;28;20401;-61
2022/12/27 06:59:28;;;;;;;13.48;2.35;;;3.40;99.90;;;;;;5115416;28;20046;-61
2022/12/27 07:01:54;;;;;;;12.95;2.40;;;3.30;99.90;;;;;;5115206;28;20036;-61
2022/12/27 07:04:19;;;;;;;12.60;3.15;;;3.30;99.90;;;;;;5114793;28;20075;-58
2022/12/27 07:06:45;;;;;;;9.93;2.20;;;3.30;99.90;;;;;;5114343;28;20039;-59
2022/12/27 07:09:10;;;;;;;14.25;2.58;;;3.30;99.90;;;;;;5114221;28;20040;-60
2022/12/27 07:11:36;;;;;;;18.33;2.72;;;3.20;99.90;;;;;;5114199;28;20040;-60
2022/12/27 07:14:02;;;;;;;15.32;2.30;;;3.30;99.90;;;;;;5114035;28;20397;-59
2022/12/27 07:16:29;;;;;;;12.55;2.17;;;3.40;99.90;;;;;;5113909;28;20122;-60
2022/12/27 07:18:56;;;;;;;11.23;2.35;;;3.30;99.90;;;;;;5113647;28;20051;-60
2022/12/27 07:21:24;;;;;;;9.30;1.90;;;3.30;99.90;;;;;;5114204;28;20036;-60
2022/12/27 07:23:50;;;;;;;14.98;2.55;;;3.30;99.90;;;;;;5094707;28;20066;-60
2022/12/27 07:26:28;;;;;;;12.45;2.20;;;3.20;99.90;;;;;;5113976;28;20043;-60
2022/12/27 07:28:56;;;;;;;13.45;2.00;;;3.20;99.90;;;;;;5113562;28;20473;-59
2022/12/27 07:31:25;;;;;;;12.50;2.05;;;3.20;99.90;;;;;;5114004;28;20044;-59
2022/12/27 07:33:51;;;;;;;13.10;2.65;;;3.20;99.90;;;;;;5113549;28;20050;-60
2022/12/27 07:36:22;;;;;;;11.27;2.20;;;3.30;99.90;;;;;;5113526;28;20513;-60
2022/12/27 07:38:48;;;;;;;12.60;2.00;;;3.30;99.90;;;;;;5113410;28;20040;-59
2022/12/27 07:41:15;;;;;;;11.02;1.92;;;3.30;99.90;;;;;;5113295;28;20047;-60
2022/12/27 07:43:42;;;;;;;14.57;2.67;;;3.40;99.90;;;;;;5113654;28;20145;-59
2022/12/27 07:46:14;;;;;;;15.27;2.22;;;3.60;99.90;;;;;;5113477;28;20050;-60
2022/12/27 07:48:40;;;;;;;9.27;2.47;;;3.50;99.90;;;;;;5113091;28;20032;-59
2022/12/27 07:51:06;;;;;;;10.60;2.50;;;3.60;99.90;;;;;;5113548;28;20047;-59
2022/12/27 07:53:32;;;;;;;17.67;2.65;;;3.60;99.90;;;;;;5113199;28;20035;-60
2022/12/27 07:55:58;;;;;;;11.52;2.80;;;3.70;99.90;;;;;;5113223;28;20039;-59
2022/12/27 07:58:24;;;;;;;12.15;1.85;;;3.70;99.90;;;;;;5094965;28;20036;-59
2022/12/27 08:00:50;;;;;;;12.07;2.08;;;3.50;99.90;;;;;;5112920;28;20127;-59
2022/12/27 08:03:17;;;;;;;13.38;2.92;;;3.60;99.90;;;;;;5113173;28;20385;-60
2022/12/27 08:05:51;;;;;;;15.32;2.30;;;3.60;99.90;;;;;;5113101;28;20032;-59
2022/12/27 08:08:21;;;;;;;9.98;2.03;;;3.60;99.90;;;;;;5112959;28;20123;-59
2022/12/27 08:10:46;;;;;;;9.48;2.15;;;3.70;99.90;;;;;;5078034;28;20051;-60
2022/12/27 08:13:12;;;;;;;12.95;2.53;;;3.70;99.90;;;;;;5094490;28;20050;-59
2022/12/27 08:15:40;;;;;;;9.18;2.60;;;3.60;99.90;;;;;;5112594;28;20089;-60
2022/12/27 08:18:05;;;;;;;12.93;2.83;;;3.60;99.90;;;;;;5112975;28;20040;-59
2022/12/27 08:20:31;;;;;;;12.30;2.38;;;3.50;99.90;;;;;;5094153;28;20455;-59
2022/12/27 08:22:57;;;;;;;16.38;2.90;;;3.60;99.90;;;;;;5112654;28;20094;-60
2022/12/27 08:25:22;;;;;;;16.75;3.00;;;3.50;99.90;;;;;;5112727;28;20047;-60
2022/12/27 08:27:48;;;;;;;18.10;2.58;;;3.50;99.90;;;;;;5112915;28;20039;-60
2022/12/27 08:30:14;;;;;;;17.98;2.97;;;3.60;99.90;;;;;;5112871;28;20500;-59
2022/12/27 08:32:39;;;;;;;18.88;2.45;;;3.60;99.90;;;;;;5112624;28;20044;-59
2022/12/27 08:35:05;;;;;;;12.70;2.72;;;3.70;99.90;;;;;;5112906;28;20534;-59
2022/12/27 08:37:32;;;;;;;19.85;3.28;;;3.60;99.90;;;;;;5112606;28;20549;-59
2022/12/27 08:39:57;;;;;;;12.93;3.70;;;3.60;99.90;;;;;;5112364;28;20110;-59
2022/12/27 08:42:24;;;;;;;15.63;2.80;;;3.70;99.90;;;;;;5094011;28;20126;-59
2022/12/27 08:44:49;;;;;;;14.68;2.58;;;3.60;99.90;;;;;;5112459;28;20390;-59
2022/12/27 08:47:15;;;;;;;15.15;3.53;;;3.70;99.90;;;;;;5112837;28;20039;-59
2022/12/27 08:49:41;;;;;;;12.27;3.08;;;3.60;99.90;;;;;;5112346;28;20036;-59
2022/12/27 08:52:06;;;;;;;17.67;2.55;;;3.70;99.90;;;;;;5112327;28;20062;-59
2022/12/27 08:54:32;;;;;;;12.75;2.78;;;3.70;99.90;;;;;;5115757;28;20101;-59
2022/12/27 08:56:57;;;;;;;11.88;2.95;;;3.80;99.90;;;;;;5116583;28;20039;-59
2022/12/27 08:59:23;;;;;;;15.07;3.00;;;3.90;99.90;;;;;;5116687;28;20039;-59
2022/12/27 09:01:49;;;;;;;13.43;3.00;;;3.90;99.90;;;;;;5098369;28;20043;-59
2022/12/27 09:04:14;;;;;;;16.50;3.33;;;4.00;99.90;;;;;;5116630;28;20031;-59
2022/12/27 09:06:40;;;;;;;21.00;3.30;;;4.00;99.90;;;;;;5116451;28;20492;-59
2022/12/27 09:09:06;;;;;;;15.20;3.42;;;4.10;99.90;;;;;;5116699;28;20035;-59
2022/12/27 09:11:33;;;;;;;14.68;2.80;;;4.10;99.90;;;;;;5116182;28;20127;-59
2022/12/27 09:14:01;;;;;;;14.90;2.78;;;4.00;99.90;;;;;;5116481;28;20063;-59
2022/12/27 09:16:28;;;;;;;17.07;3.07;;;4.10;99.90;;;;;;5115920;28;20040;-60
2022/12/27 09:18:56;;;;;;;13.63;2.13;;;4.20;99.90;;;;;;5115961;28;20088;-59
2022/12/27 09:21:24;;;;;;;15.73;2.70;;;4.30;99.90;;;;;;5116259;28;20051;-59
2022/12/27 09:23:51;;;;;;;17.43;3.63;;;4.40;99.90;;;;;;5116315;28;20039;-59
2022/12/27 09:26:19;;;;;;;17.02;3.30;;;4.40;99.90;;;;;;5115902;28;20023;-59
2022/12/27 09:28:45;;;;;;;11.40;2.83;;;4.40;99.90;;;;;;5116510;28;20415;-59
2022/12/27 09:31:13;;;;;;;14.18;3.53;;;4.40;99.90;;;;;;5115887;28;20538;-59
2022/12/27 09:33:39;;;;;;;12.15;2.45;;;4.40;99.90;;;;;;5097863;28;20039;-60
2022/12/27 09:36:12;;;;;;;7.60;2.63;;;4.40;99.90;;;;;;5116078;28;20038;-60
2022/12/27 09:38:39;;;;;;;6.38;1.92;;;4.60;99.90;;;;;;5116187;28;20044;-60
2022/12/27 09:41:45;;;;;;;7.75;2.25;;;4.60;99.90;;;;;;5115822;28;20130;-60
2022/12/27 09:44:14;;;;;;;13.57;2.80;;;4.60;99.90;;;;;;5096981;28;20047;-60
2022/12/27 09:46:46;;;;;;;22.65;3.13;;;4.70;99.90;;;;;;5115760;28;20054;-60
2022/12/27 09:49:22;;;;;;;12.52;2.42;;;4.70;99.90;;;;;;5115638;28;20040;-61
2022/12/27 09:51:59;;;;;;;9.93;2.40;;;4.80;99.90;;;;;;5115625;28;20043;-60
2022/12/27 09:54:29;;;;;;;11.98;2.53;;;4.80;99.90;;;;;;5115706;28;20367;-60
2022/12/27 09:56:57;;;;;;;10.13;2.58;;;5.00;99.90;;;;;;5115236;28;20082;-60
2022/12/27 09:59:37;;;;;;;15.25;3.00;;;5.10;99.90;;;;;;5114967;28;20497;-60
2022/12/27 10:02:18;;;;;;;13.32;2.65;;;5.20;99.90;;;;;;5115627;28;20071;-60
2022/12/27 10:04:44;;;;;;;12.90;2.75;;;5.20;99.90;;;;;;5113970;28;20036;-60
2022/12/27 10:07:25;;;;;;;14.68;2.33;;;5.20;99.90;;;;;;5115357;28;20393;-60
2022/12/27 10:10:09;;;;;;;13.40;3.22;;;5.20;99.90;;;;;;5097341;28;20397;-60
2022/12/27 10:13:07;;;;;;;12.02;2.80;;;5.20;99.90;;;;;;5115276;28;20046;-60
2022/12/27 10:15:47;;;;;;;9.68;2.72;;;5.30;99.90;;;;;;5115550;28;20044;-61
2022/12/27 10:18:31;;;;;;;;;;;5.30;99.90;;;;;;5115534;28;20047;-59
2022/12/27 10:21:20;;;;;;;16.17;3.40;;;5.40;99.90;;;;;;5114414;28;19998;-60
2022/12/27 10:24:05;;;;;;;14.85;2.63;;;5.40;99.90;;;;;;5114859;28;20040;-60
2022/12/27 10:26:31;;;;;;;12.60;2.75;;;5.40;99.90;;;;;;5095823;28;20072;-60
2022/12/27 10:29:02;;;;;;;19.05;3.10;;;5.40;99.90;;;;;;5114604;28;20524;-59
2022/12/27 10:31:30;;;;;;;16.45;2.90;;;5.50;99.90;;;;;;5114562;28;20035;-60
2022/12/27 10:33:56;;;;;;;17.75;3.22;;;5.50;99.90;;;;;;5114610;28;20036;-59
2022/12/27 10:36:30;;;;;;;12.13;2.75;;;5.70;99.90;;;;;;5096529;28;20032;-59
2022/12/27 10:38:55;;;;;;;15.15;3.17;;;5.70;99.90;;;;;;5114881;28;20031;-59
2022/12/27 10:41:25;;;;;;;11.77;3.40;;;5.80;99.90;;;;;;5114720;28;20038;-60
2022/12/27 10:43:53;;;;;;;10.25;2.42;;;5.90;99.90;;;;;;5114647;28;20036;-59
2022/12/27 10:46:21;;;;;;;19.08;3.47;;;5.80;99.90;;;;;;5114826;28;20039;-59
2022/12/27 10:49:02;;;;;;;12.15;2.65;;;5.90;99.90;;;;;;5114312;28;20473;-60
2022/12/27 10:51:39;;;;;;;12.15;2.53;;;5.90;99.90;;;;;;5114260;28;20035;-59
2022/12/27 10:54:12;;;;;;;12.45;2.53;;;5.90;99.90;;;;;;5114337;28;20075;-59
2022/12/27 10:56:40;;;;;;;13.82;2.83;;;6.00;99.90;;;;;;5114221;28;20043;-59
2022/12/27 10:59:26;;;;;;;9.38;2.38;;;6.20;99.90;;;;;;5114422;28;20038;-60
2022/12/27 11:02:01;;;;;;;8.77;2.30;;;6.30;99.90;;;;;;5114258;28;20039;-60
2022/12/27 11:04:28;;;;;;;16.40;2.75;;;6.50;99.90;;;;;;5114401;28;20056;-59
2022/12/27 11:07:03;;;;;;;17.95;3.03;;;6.60;99.90;;;;;;5114054;28;20088;-59
2022/12/27 11:09:42;;;;;;;16.13;3.08;;;6.60;99.90;;;;;;5114155;28;20043;-60
2022/12/27 11:12:08;;;;;;;;;;;6.70;99.90;;;;;;5114340;28;20035;-60
2022/12/27 11:14:36;;;;;;;12.68;2.70;;;6.80;99.90;;;;;;5113790;28;19922;-60
2022/12/27 11:17:06;;;;;;;10.20;1.98;;;6.80;99.90;;;;;;5113699;28;20058;-60
2022/12/27 11:19:32;;;;;;;13.75;2.75;;;6.80;99.90;;;;;;5114158;28;20067;-60
2022/12/27 11:22:03;;;;;;;10.05;2.28;;;6.90;99.90;;;;;;5095009;28;20493;-59
2022/12/27 11:24:29;;;;;;;7.88;2.15;;;6.90;99.90;;;;;;5114044;28;20122;-60
2022/12/27 11:26:58;;;;;;;13.02;2.60;;;6.90;99.90;;;;;;5114023;28;20111;-61
2022/12/27 11:29:26;;;;;;;6.43;1.85;;;6.90;99.90;;;;;;5113788;28;20047;-60
2022/12/27 11:31:53;;;;;;;14.20;2.35;;;6.90;99.90;;;;;;5113748;28;20039;-60
2022/12/27 11:34:29;;;;;;;11.70;2.05;;;6.90;99.90;;;;;;5095284;28;20032;-60
2022/12/27 11:37:13;;;;;;;10.40;2.20;;;6.70;99.90;;;;;;5113754;28;20031;-60
2022/12/27 11:39:44;;;;;;;16.48;2.50;;;6.70;99.90;;;;;;5095212;28;20081;-60
2022/12/27 11:42:16;;;;;;;12.30;2.88;;;6.70;99.90;;;;;;5113699;28;20119;-60
2022/12/27 11:44:45;;;;;;;10.10;2.45;;;6.90;99.90;;;;;;5113451;28;20077;-61
2022/12/27 11:47:48;;;;;;;10.45;2.42;;;7.00;99.90;;;;;;5113239;28;20042;-60
2022/12/27 11:50:26;;;;;;;15.52;3.22;;;7.20;99.90;;;;;;5113488;28;20045;-60
2022/12/27 11:53:19;;;;;;;10.30;2.80;;;7.30;99.90;;;;;;5113435;28;20044;-60
2022/12/27 11:56:08;;;;;;;18.05;2.40;;;7.30;99.90;;;;;;5113289;28;20044;-60
2022/12/27 11:58:36;;;;;;;12.32;2.67;;;7.30;99.90;;;;;;5113083;28;20040;-60
2022/12/27 12:01:49;;;;;;;10.35;2.40;;;7.50;99.90;;;;;;5112671;28;20473;-60
2022/12/27 12:04:35;;;;;;;10.45;2.58;;;7.60;99.90;;;;;;5113178;28;20044;-59
2022/12/27 12:07:35;;;;;;;10.18;2.10;;;7.50;99.90;;;;;;5113027;28;20067;-60
2022/12/27 12:10:18;;;;;;;13.18;2.58;;;7.40;99.90;;;;;;5112859;28;20046;-60
2022/12/27 12:13:19;;;;;;;9.05;2.33;;;7.30;99.90;;;;;;5112886;28;20492;-60
2022/12/27 12:16:04;;;;;;;12.95;2.33;;;7.30;99.90;;;;;;5112807;28;20050;-59
2022/12/27 12:18:48;;;;;;;11.73;2.42;;;7.30;99.90;;;;;;5112805;28;20078;-59
2022/12/27 12:21:35;;;;;;;10.73;2.40;;;7.10;99.90;;;;;;5112538;28;20048;-59
2022/12/27 12:24:39;;;;;;;17.65;2.65;;;7.10;99.90;;;;;;5112675;28;20423;-59
2022/12/27 12:27:29;;;;;;;9.95;2.28;;;7.00;99.90;;;;;;5112187;28;20537;-59
2022/12/27 12:30:17;;;;;;;12.68;2.60;;;7.00;99.90;;;;;;5112862;28;20039;-59
2022/12/27 12:33:23;;;;;;;15.98;2.75;;;6.90;99.90;;;;;;5112658;28;20050;-60
2022/12/27 12:35:57;;;;;;;7.68;2.40;;;7.00;99.90;;;;;;5112403;28;20047;-60
2022/12/27 12:38:49;;;;;;;7.07;2.10;;;6.90;99.90;;;;;;5094105;28;20051;-60
2022/12/27 12:41:40;;;;;;;12.73;2.10;;;6.90;99.90;;;;;;5112682;28;20039;-60
2022/12/27 12:44:35;;;;;;;12.15;2.25;;;6.90;99.90;;;;;;5112697;28;20086;-59
2022/12/27 12:47:28;;;;;;;13.88;2.58;;;6.90;99.90;;;;;;5112391;28;20051;-59
2022/12/27 12:50:13;;;;;;;8.48;2.05;;;6.90;99.90;;;;;;5112318;28;20051;-59
2022/12/27 12:53:06;;;;;;;7.70;2.30;;;6.80;99.90;;;;;;5112539;28;20057;-59
2022/12/27 12:55:38;;;;;;;6.05;1.67;;;6.80;99.90;;;;;;5112131;28;20044;-60
2022/12/27 12:58:25;;;;;;;11.18;2.00;;;6.80;99.90;;;;;;5111983;28;20048;-60
2022/12/27 13:01:33;;;;;;;11.30;3.15;;;6.80;99.90;;;;;;5111956;28;20486;-60
2022/12/27 13:04:26;;;;;;;10.15;2.15;;;6.80;99.90;;;;;;5009672;28;20049;-60
2022/12/27 13:07:10;;;;;;;7.28;2.03;;;6.80;99.90;;;;;;5009697;28;20141;-60
2022/12/27 13:09:41;;;;;;;8.43;2.42;;;6.80;99.90;;;;;;5009739;28;20038;-60
2022/12/27 13:12:39;;;;;;;13.55;3.22;;;6.70;99.90;;;;;;5009556;28;20519;-59
2022/12/27 13:15:31;;;;;;;11.18;2.67;;;6.70;99.90;;;;;;4951529;29;21041;-59
2022/12/27 13:18:02;;;;;;;10.27;2.80;;;6.70;99.90;;;;;;4951033;29;20051;-60
2022/12/27 13:20:30;;;;;;;8.90;2.70;;;6.70;99.90;;;;;;4951166;29;20074;-60
2022/12/27 13:23:02;;;;;;;13.35;3.05;;;6.60;99.90;;;;;;4951219;29;20058;-61
2022/12/27 13:25:52;;;;;;;13.52;2.88;;;6.60;99.90;;;;;;4951082;29;20055;-60
2022/12/27 13:28:25;;;;;;;12.73;3.13;;;6.60;99.90;;;;;;4951359;29;20608;-60
2022/12/27 13:30:57;;;;;;;15.10;3.00;;;6.60;99.90;;;;;;4950933;29;20127;-61
2022/12/27 13:33:30;;;;;;;10.45;2.53;;;6.50;99.90;;;;;;4951247;29;20054;-60
2022/12/27 13:36:11;;;;;;;11.38;2.72;;;6.50;99.90;;;;;;4951005;29;20043;-60
2022/12/27 13:38:54;;;;;;;11.93;3.10;;;6.40;99.90;;;;;;5031517;28;20092;-60
2022/12/27 13:41:44;;;;;;;11.93;2.90;;;6.40;99.90;;;;;;5052832;28;20176;-60
2022/12/27 13:44:22;;;;;;;15.23;3.00;;;6.40;99.90;;;;;;5052500;28;20395;-60
2022/12/27 13:47:00;;;;;;;10.85;2.40;;;6.40;99.90;;;;;;5052598;28;20124;-60
2022/12/27 13:50:03;;;;;;;11.15;2.90;;;6.40;99.90;;;;;;5052663;28;20055;-60
2022/12/27 13:53:02;;;;;;;12.05;2.40;;;6.40;99.90;;;;;;5115232;28;20076;-61
2022/12/27 13:56:03;;;;;;;10.45;2.58;;;6.30;99.90;;;;;;5097454;28;20043;-60
2022/12/27 13:59:00;;;;;;;9.50;2.72;;;6.30;99.90;;;;;;5115412;28;20411;-60
2022/12/27 14:01:29;;;;;;;9.23;4.28;;;6.30;99.90;;;;;;5115129;28;20031;-60
2022/12/27 14:04:15;;;;;;;12.35;3.30;;;6.20;99.90;;;;;;5115083;28;20032;-60
2022/12/27 14:07:11;;;;;;;12.60;2.65;;;6.20;99.90;;;;;;5012469;28;20046;-59
2022/12/27 14:09:51;;;;;;;14.55;3.20;;;6.20;99.90;;;;;;5012435;28;20070;-59
2022/12/27 14:12:26;;;;;;;9.52;3.08;;;6.30;99.90;;;;;;5012299;28;20089;-60
2022/12/27 14:14:55;;;;;;;13.20;3.00;;;6.20;99.90;;;;;;5012371;28;20064;-60
2022/12/27 14:17:39;;;;;;;;;;;6.20;99.90;;;;;;5012352;28;20500;-60
2022/12/27 14:20:38;;;;;;;12.98;3.03;;;6.20;99.90;;;;;;5011982;28;19932;-60
2022/12/27 14:23:25;;;;;;;15.90;3.95;;;6.20;99.90;;;;;;5012161;28;20498;-60
2022/12/27 14:26:18;;;;;;;14.95;3.35;;;6.30;99.90;;;;;;5012160;28;20046;-60
2022/12/27 14:29:26;;;;;;;15.07;4.38;;;6.30;99.90;;;;;;5012183;28;20050;-60
2022/12/27 14:32:27;;;;;;;12.52;3.60;;;6.30;99.90;;;;;;5012021;28;20104;-60
2022/12/27 14:35:04;;;;;;;11.43;3.60;;;6.40;99.90;;;;;;5012206;28;20049;-60
2022/12/27 14:37:38;;;;;;;10.82;4.13;;;6.30;99.90;;;;;;5011730;28;20543;-61
2022/12/27 14:40:37;;;;;;;13.65;3.90;;;6.40;99.90;;;;;;5011820;28;20589;-60
2022/12/27 14:43:27;;;;;;;14.80;4.53;;;6.40;99.90;;;;;;5015038;28;20454;-60
2022/12/27 14:46:14;;;;;;;19.52;4.28;;;6.30;99.90;;;;;;5096187;28;20054;-60
2022/12/27 14:49:16;;;;;;;9.35;3.42;;;6.40;99.90;;;;;;5114070;28;20086;-60
2022/12/27 14:52:00;;;;;;;15.20;3.67;;;6.30;99.90;;;;;;5113555;28;20122;-60
2022/12/27 14:54:47;;;;;;;13.15;5.32;;;6.30;99.90;;;;;;5114057;28;20047;-61
2022/12/27 14:57:50;;;;;;;9.73;4.13;;;6.30;99.90;;;;;;5113797;28;20039;-61
2022/12/27 15:00:18;;;;;;;12.90;4.15;;;6.20;99.90;;;;;;5114021;28;20036;-61
2022/12/27 15:03:08;;;;;;;14.90;4.40;;;6.20;99.90;;;;;;5114176;28;20123;-60
2022/12/27 15:05:50;;;;;;;19.60;4.33;;;6.20;99.90;;;;;;5113706;28;20039;-60